sensor_id;sensor_type;location;lat;lon;timestamp;P1;durP1;ratioP1;P2;durP2;ratioP2
13483;SDS011;6814;57.786;12.080;2023-06-10T00:00:38;8.70;;;0.90;;
13483;SDS011;6814;57.786;12.080;2023-06-10T00:03:07;0.60;;;0.60;;
13483;SDS011;6814;57.786;12.080;2023-06-10T00:05:34;2.40;;;0.90;;
13483;SDS011;6814;57.786;12.080;2023-06-10T00:08:01;1.13;;;1.03;;
13483;SDS011;6814;57.786;12.080;2023-06-10T00:10:32;0.70;;;0.70;;
13483;SDS011;6814;57.786;12.080;2023-06-10T00:12:58;3.10;;;1.00;;
13483;SDS011;6814;57.786;12.080;2023-06-10T00:15:24;0.90;;;0.90;;
13483;SDS011;6814;57.786;12.080;2023-06-10T00:17:51;2.80;;;1.00;;
13483;SDS011;6814;57.786;12.080;2023-06-10T00:20:19;0.80;;;0.80;;
13483;SDS011;6814;57.786;12.080;2023-06-10T00:22:47;0.93;;;0.93;;
13483;SDS011;6814;57.786;12.080;2023-06-10T00:25:13;0.77;;;0.77;;
13483;SDS011;6814;57.786;12.080;2023-06-10T00:27:40;3.03;;;1.00;;
13483;SDS011;6814;57.786;12.080;2023-06-10T00:30:06;0.97;;;0.90;;
13483;SDS011;6814;57.786;12.080;2023-06-10T00:32:33;1.07;;;1.00;;
13483;SDS011;6814;57.786;12.080;2023-06-10T00:35:00;0.77;;;0.77;;
13483;SDS011;6814;57.786;12.080;2023-06-10T00:37:28;0.67;;;0.63;;
13483;SDS011;6814;57.786;12.080;2023-06-10T00:39:55;0.80;;;0.60;;
13483;SDS011;6814;57.786;12.080;2023-06-10T00:42:21;1.77;;;0.77;;
13483;SDS011;6814;57.786;12.080;2023-06-10T00:44:50;2.37;;;0.77;;
13483;SDS011;6814;57.786;12.080;2023-06-10T00:47:16;0.67;;;0.67;;
13483;SDS011;6814;57.786;12.080;2023-06-10T00:49:43;1.10;;;1.00;;
13483;SDS011;6814;57.786;12.080;2023-06-10T00:52:09;0.90;;;0.90;;
13483;SDS011;6814;57.786;12.080;2023-06-10T00:54:37;0.97;;;0.60;;
13483;SDS011;6814;57.786;12.080;2023-06-10T00:57:04;0.80;;;0.80;;
13483;SDS011;6814;57.786;12.080;2023-06-10T00:59:31;0.60;;;0.60;;
13483;SDS011;6814;57.786;12.080;2023-06-10T01:01:58;0.60;;;0.60;;
13483;SDS011;6814;57.786;12.080;2023-06-10T01:04:25;0.60;;;0.60;;
13483;SDS011;6814;57.786;12.080;2023-06-10T01:06:54;1.33;;;0.60;;
13483;SDS011;6814;57.786;12.080;2023-06-10T01:09:24;2.07;;;0.70;;
13483;SDS011;6814;57.786;12.080;2023-06-10T01:11:58;0.50;;;0.50;;
13483;SDS011;6814;57.786;12.080;2023-06-10T01:14:25;1.53;;;0.70;;
13483;SDS011;6814;57.786;12.080;2023-06-10T01:16:52;0.60;;;0.60;;
13483;SDS011;6814;57.786;12.080;2023-06-10T01:19:19;1.53;;;0.50;;
13483;SDS011;6814;57.786;12.080;2023-06-10T01:21:46;0.80;;;0.50;;
13483;SDS011;6814;57.786;12.080;2023-06-10T01:24:13;0.70;;;0.70;;
13483;SDS011;6814;57.786;12.080;2023-06-10T01:26:43;0.60;;;0.60;;
13483;SDS011;6814;57.786;12.080;2023-06-10T01:29:11;0.60;;;0.60;;
13483;SDS011;6814;57.786;12.080;2023-06-10T01:31:41;0.60;;;0.60;;
13483;SDS011;6814;57.786;12.080;2023-06-10T01:34:10;1.53;;;0.50;;
13483;SDS011;6814;57.786;12.080;2023-06-10T01:36:36;0.80;;;0.80;;
13483;SDS011;6814;57.786;12.080;2023-06-10T01:39:05;0.80;;;0.70;;
13483;SDS011;6814;57.786;12.080;2023-06-10T01:41:32;0.70;;;0.70;;
13483;SDS011;6814;57.786;12.080;2023-06-10T01:43:58;0.60;;;0.60;;
13483;SDS011;6814;57.786;12.080;2023-06-10T01:46:25;0.70;;;0.70;;
13483;SDS011;6814;57.786;12.080;2023-06-10T01:48:51;1.17;;;0.83;;
13483;SDS011;6814;57.786;12.080;2023-06-10T01:51:18;0.63;;;0.63;;
13483;SDS011;6814;57.786;12.080;2023-06-10T01:53:44;0.60;;;0.60;;
13483;SDS011;6814;57.786;12.080;2023-06-10T01:56:12;0.70;;;0.70;;
13483;SDS011;6814;57.786;12.080;2023-06-10T01:58:41;0.50;;;0.50;;
13483;SDS011;6814;57.786;12.080;2023-06-10T02:01:08;1.50;;;0.93;;
13483;SDS011;6814;57.786;12.080;2023-06-10T02:03:34;0.57;;;0.57;;
13483;SDS011;6814;57.786;12.080;2023-06-10T02:06:01;0.60;;;0.60;;
13483;SDS011;6814;57.786;12.080;2023-06-10T02:08:27;0.70;;;0.70;;
13483;SDS011;6814;57.786;12.080;2023-06-10T02:10:54;0.63;;;0.63;;
13483;SDS011;6814;57.786;12.080;2023-06-10T02:13:21;1.43;;;0.67;;
13483;SDS011;6814;57.786;12.080;2023-06-10T02:15:48;0.80;;;0.80;;
13483;SDS011;6814;57.786;12.080;2023-06-10T02:18:14;0.93;;;0.90;;
13483;SDS011;6814;57.786;12.080;2023-06-10T02:20:40;0.77;;;0.60;;
13483;SDS011;6814;57.786;12.080;2023-06-10T02:23:07;1.17;;;0.70;;
13483;SDS011;6814;57.786;12.080;2023-06-10T02:25:33;2.70;;;0.93;;
13483;SDS011;6814;57.786;12.080;2023-06-10T02:28:00;1.47;;;0.70;;
13483;SDS011;6814;57.786;12.080;2023-06-10T02:30:29;0.60;;;0.60;;
13483;SDS011;6814;57.786;12.080;2023-06-10T02:32:56;0.60;;;0.60;;
13483;SDS011;6814;57.786;12.080;2023-06-10T02:35:24;1.70;;;0.80;;
13483;SDS011;6814;57.786;12.080;2023-06-10T02:37:50;0.90;;;0.90;;
13483;SDS011;6814;57.786;12.080;2023-06-10T02:40:17;0.70;;;0.70;;
13483;SDS011;6814;57.786;12.080;2023-06-10T02:42:43;1.40;;;0.90;;
13483;SDS011;6814;57.786;12.080;2023-06-10T02:45:10;2.20;;;0.80;;
13483;SDS011;6814;57.786;12.080;2023-06-10T02:47:38;0.70;;;0.70;;
13483;SDS011;6814;57.786;12.080;2023-06-10T02:50:05;0.60;;;0.60;;
13483;SDS011;6814;57.786;12.080;2023-06-10T02:52:32;0.63;;;0.63;;
13483;SDS011;6814;57.786;12.080;2023-06-10T02:54:58;0.67;;;0.67;;
13483;SDS011;6814;57.786;12.080;2023-06-10T02:57:25;2.40;;;0.70;;
13483;SDS011;6814;57.786;12.080;2023-06-10T02:59:51;0.50;;;0.47;;
13483;SDS011;6814;57.786;12.080;2023-06-10T03:02:18;0.50;;;0.50;;
13483;SDS011;6814;57.786;12.080;2023-06-10T03:04:46;0.63;;;0.63;;
13483;SDS011;6814;57.786;12.080;2023-06-10T03:07:15;1.50;;;0.70;;
13483;SDS011;6814;57.786;12.080;2023-06-10T03:09:41;0.57;;;0.57;;
13483;SDS011;6814;57.786;12.080;2023-06-10T03:12:08;2.10;;;0.67;;
13483;SDS011;6814;57.786;12.080;2023-06-10T03:14:35;0.37;;;0.33;;
13483;SDS011;6814;57.786;12.080;2023-06-10T03:17:04;0.60;;;0.60;;
13483;SDS011;6814;57.786;12.080;2023-06-10T03:19:30;0.60;;;0.60;;
13483;SDS011;6814;57.786;12.080;2023-06-10T03:22:08;1.03;;;0.60;;
13483;SDS011;6814;57.786;12.080;2023-06-10T03:24:35;0.63;;;0.60;;
13483;SDS011;6814;57.786;12.080;2023-06-10T03:27:05;0.50;;;0.50;;
13483;SDS011;6814;57.786;12.080;2023-06-10T03:29:31;0.50;;;0.50;;
13483;SDS011;6814;57.786;12.080;2023-06-10T03:31:57;0.60;;;0.40;;
13483;SDS011;6814;57.786;12.080;2023-06-10T03:34:24;0.37;;;0.37;;
13483;SDS011;6814;57.786;12.080;2023-06-10T03:36:50;0.60;;;0.60;;
13483;SDS011;6814;57.786;12.080;2023-06-10T03:39:18;1.70;;;0.67;;
13483;SDS011;6814;57.786;12.080;2023-06-10T03:41:45;0.50;;;0.50;;
13483;SDS011;6814;57.786;12.080;2023-06-10T03:44:11;0.40;;;0.40;;
13483;SDS011;6814;57.786;12.080;2023-06-10T03:46:37;2.53;;;0.60;;
13483;SDS011;6814;57.786;12.080;2023-06-10T03:49:04;0.50;;;0.50;;
13483;SDS011;6814;57.786;12.080;2023-06-10T03:51:30;1.13;;;0.50;;
13483;SDS011;6814;57.786;12.080;2023-06-10T03:53:57;0.60;;;0.60;;
13483;SDS011;6814;57.786;12.080;2023-06-10T03:56:25;0.87;;;0.53;;
13483;SDS011;6814;57.786;12.080;2023-06-10T03:58:51;0.40;;;0.40;;
13483;SDS011;6814;57.786;12.080;2023-06-10T04:01:18;0.60;;;0.50;;
13483;SDS011;6814;57.786;12.080;2023-06-10T04:03:46;0.50;;;0.50;;
13483;SDS011;6814;57.786;12.080;2023-06-10T04:06:13;0.40;;;0.40;;
13483;SDS011;6814;57.786;12.080;2023-06-10T04:08:40;0.30;;;0.30;;
13483;SDS011;6814;57.786;12.080;2023-06-10T04:11:06;0.30;;;0.30;;
13483;SDS011;6814;57.786;12.080;2023-06-10T04:13:34;0.40;;;0.40;;
13483;SDS011;6814;57.786;12.080;2023-06-10T04:16:01;0.40;;;0.40;;
13483;SDS011;6814;57.786;12.080;2023-06-10T04:18:28;0.97;;;0.50;;
13483;SDS011;6814;57.786;12.080;2023-06-10T04:20:54;0.60;;;0.47;;
13483;SDS011;6814;57.786;12.080;2023-06-10T04:23:22;2.30;;;0.40;;
13483;SDS011;6814;57.786;12.080;2023-06-10T04:25:48;1.13;;;0.40;;
13483;SDS011;6814;57.786;12.080;2023-06-10T04:28:14;0.30;;;0.30;;
13483;SDS011;6814;57.786;12.080;2023-06-10T04:30:42;3.20;;;0.40;;
13483;SDS011;6814;57.786;12.080;2023-06-10T04:33:10;2.57;;;0.40;;
13483;SDS011;6814;57.786;12.080;2023-06-10T04:35:36;1.13;;;0.43;;
13483;SDS011;6814;57.786;12.080;2023-06-10T04:38:02;0.30;;;0.30;;
13483;SDS011;6814;57.786;12.080;2023-06-10T04:40:29;0.40;;;0.40;;
13483;SDS011;6814;57.786;12.080;2023-06-10T04:42:56;0.30;;;0.30;;
13483;SDS011;6814;57.786;12.080;2023-06-10T04:45:22;0.30;;;0.30;;
13483;SDS011;6814;57.786;12.080;2023-06-10T04:47:50;0.93;;;0.73;;
13483;SDS011;6814;57.786;12.080;2023-06-10T04:50:17;0.30;;;0.30;;
13483;SDS011;6814;57.786;12.080;2023-06-10T04:52:43;0.60;;;0.60;;
13483;SDS011;6814;57.786;12.080;2023-06-10T04:55:10;1.70;;;0.30;;
13483;SDS011;6814;57.786;12.080;2023-06-10T04:57:37;0.60;;;0.40;;
13483;SDS011;6814;57.786;12.080;2023-06-10T05:00:04;0.43;;;0.40;;
13483;SDS011;6814;57.786;12.080;2023-06-10T05:02:31;1.13;;;0.30;;
13483;SDS011;6814;57.786;12.080;2023-06-10T05:04:59;0.30;;;0.30;;
13483;SDS011;6814;57.786;12.080;2023-06-10T05:07:25;0.47;;;0.20;;
13483;SDS011;6814;57.786;12.080;2023-06-10T05:09:51;0.77;;;0.30;;
13483;SDS011;6814;57.786;12.080;2023-06-10T05:12:18;1.20;;;0.40;;
13483;SDS011;6814;57.786;12.080;2023-06-10T05:14:44;0.30;;;0.30;;
13483;SDS011;6814;57.786;12.080;2023-06-10T05:17:11;0.20;;;0.20;;
13483;SDS011;6814;57.786;12.080;2023-06-10T05:19:37;0.20;;;0.20;;
13483;SDS011;6814;57.786;12.080;2023-06-10T05:22:06;0.30;;;0.30;;
13483;SDS011;6814;57.786;12.080;2023-06-10T05:24:33;0.17;;;0.17;;
13483;SDS011;6814;57.786;12.080;2023-06-10T05:26:59;0.20;;;0.20;;
13483;SDS011;6814;57.786;12.080;2023-06-10T05:29:26;0.57;;;0.20;;
13483;SDS011;6814;57.786;12.080;2023-06-10T05:31:52;1.10;;;0.30;;
13483;SDS011;6814;57.786;12.080;2023-06-10T05:34:21;0.20;;;0.20;;
13483;SDS011;6814;57.786;12.080;2023-06-10T05:36:47;0.40;;;0.30;;
13483;SDS011;6814;57.786;12.080;2023-06-10T05:39:15;0.40;;;0.37;;
13483;SDS011;6814;57.786;12.080;2023-06-10T05:41:42;1.03;;;0.40;;
13483;SDS011;6814;57.786;12.080;2023-06-10T05:44:08;2.00;;;0.27;;
13483;SDS011;6814;57.786;12.080;2023-06-10T05:46:35;0.40;;;0.20;;
13483;SDS011;6814;57.786;12.080;2023-06-10T05:49:01;0.60;;;0.20;;
13483;SDS011;6814;57.786;12.080;2023-06-10T05:51:28;0.63;;;0.40;;
13483;SDS011;6814;57.786;12.080;2023-06-10T05:53:54;0.50;;;0.33;;
13483;SDS011;6814;57.786;12.080;2023-06-10T05:56:22;0.37;;;0.30;;
13483;SDS011;6814;57.786;12.080;2023-06-10T05:58:48;0.20;;;0.20;;
13483;SDS011;6814;57.786;12.080;2023-06-10T06:01:15;0.43;;;0.20;;
13483;SDS011;6814;57.786;12.080;2023-06-10T06:03:41;0.50;;;0.30;;
13483;SDS011;6814;57.786;12.080;2023-06-10T06:06:08;0.33;;;0.33;;
13483;SDS011;6814;57.786;12.080;2023-06-10T06:08:34;0.23;;;0.20;;
13483;SDS011;6814;57.786;12.080;2023-06-10T06:11:01;0.60;;;0.30;;
13483;SDS011;6814;57.786;12.080;2023-06-10T06:13:28;0.47;;;0.37;;
13483;SDS011;6814;57.786;12.080;2023-06-10T06:15:55;0.63;;;0.20;;
13483;SDS011;6814;57.786;12.080;2023-06-10T06:18:21;0.33;;;0.30;;
13483;SDS011;6814;57.786;12.080;2023-06-10T06:20:48;0.13;;;0.13;;
13483;SDS011;6814;57.786;12.080;2023-06-10T06:23:14;1.60;;;0.30;;
13483;SDS011;6814;57.786;12.080;2023-06-10T06:25:40;0.40;;;0.40;;
13483;SDS011;6814;57.786;12.080;2023-06-10T06:28:07;0.27;;;0.17;;
13483;SDS011;6814;57.786;12.080;2023-06-10T06:30:35;1.70;;;0.67;;
13483;SDS011;6814;57.786;12.080;2023-06-10T06:33:02;0.23;;;0.20;;
13483;SDS011;6814;57.786;12.080;2023-06-10T06:35:30;0.27;;;0.27;;
13483;SDS011;6814;57.786;12.080;2023-06-10T06:37:56;0.33;;;0.10;;
13483;SDS011;6814;57.786;12.080;2023-06-10T06:40:23;0.37;;;0.37;;
13483;SDS011;6814;57.786;12.080;2023-06-10T06:42:50;1.10;;;0.30;;
13483;SDS011;6814;57.786;12.080;2023-06-10T06:45:16;0.70;;;0.40;;
13483;SDS011;6814;57.786;12.080;2023-06-10T06:47:44;0.30;;;0.30;;
13483;SDS011;6814;57.786;12.080;2023-06-10T06:50:11;0.30;;;0.30;;
13483;SDS011;6814;57.786;12.080;2023-06-10T06:52:37;0.80;;;0.30;;
13483;SDS011;6814;57.786;12.080;2023-06-10T06:55:04;0.53;;;0.33;;
13483;SDS011;6814;57.786;12.080;2023-06-10T06:57:30;0.73;;;0.40;;
13483;SDS011;6814;57.786;12.080;2023-06-10T06:59:57;0.20;;;0.20;;
13483;SDS011;6814;57.786;12.080;2023-06-10T07:02:23;0.30;;;0.30;;
13483;SDS011;6814;57.786;12.080;2023-06-10T07:04:51;0.30;;;0.30;;
13483;SDS011;6814;57.786;12.080;2023-06-10T07:07:20;0.43;;;0.43;;
13483;SDS011;6814;57.786;12.080;2023-06-10T07:09:47;0.77;;;0.40;;
13483;SDS011;6814;57.786;12.080;2023-06-10T07:12:13;0.87;;;0.40;;
13483;SDS011;6814;57.786;12.080;2023-06-10T07:14:40;0.30;;;0.30;;
13483;SDS011;6814;57.786;12.080;2023-06-10T07:17:06;0.73;;;0.33;;
13483;SDS011;6814;57.786;12.080;2023-06-10T07:19:33;0.67;;;0.40;;
13483;SDS011;6814;57.786;12.080;2023-06-10T07:22:01;0.30;;;0.30;;
13483;SDS011;6814;57.786;12.080;2023-06-10T07:24:33;0.93;;;0.30;;
13483;SDS011;6814;57.786;12.080;2023-06-10T07:27:00;0.57;;;0.50;;
13483;SDS011;6814;57.786;12.080;2023-06-10T07:29:26;0.50;;;0.50;;
13483;SDS011;6814;57.786;12.080;2023-06-10T07:31:53;1.03;;;0.40;;
13483;SDS011;6814;57.786;12.080;2023-06-10T07:34:19;0.87;;;0.50;;
13483;SDS011;6814;57.786;12.080;2023-06-10T07:36:45;0.93;;;0.37;;
13483;SDS011;6814;57.786;12.080;2023-06-10T07:39:13;0.40;;;0.37;;
13483;SDS011;6814;57.786;12.080;2023-06-10T07:41:40;0.37;;;0.37;;
13483;SDS011;6814;57.786;12.080;2023-06-10T07:44:06;0.37;;;0.30;;
13483;SDS011;6814;57.786;12.080;2023-06-10T07:46:33;0.60;;;0.40;;
13483;SDS011;6814;57.786;12.080;2023-06-10T07:48:59;0.50;;;0.50;;
13483;SDS011;6814;57.786;12.080;2023-06-10T07:51:26;1.37;;;0.50;;
13483;SDS011;6814;57.786;12.080;2023-06-10T07:53:52;0.93;;;0.40;;
13483;SDS011;6814;57.786;12.080;2023-06-10T07:56:20;1.47;;;0.40;;
13483;SDS011;6814;57.786;12.080;2023-06-10T07:58:46;1.87;;;0.50;;
13483;SDS011;6814;57.786;12.080;2023-06-10T08:01:13;1.73;;;0.50;;
13483;SDS011;6814;57.786;12.080;2023-06-10T08:03:39;0.77;;;0.57;;
13483;SDS011;6814;57.786;12.080;2023-06-10T08:06:06;0.37;;;0.37;;
13483;SDS011;6814;57.786;12.080;2023-06-10T08:08:33;1.07;;;0.40;;
13483;SDS011;6814;57.786;12.080;2023-06-10T08:11:06;0.63;;;0.43;;
13483;SDS011;6814;57.786;12.080;2023-06-10T08:13:34;0.50;;;0.50;;
13483;SDS011;6814;57.786;12.080;2023-06-10T08:16:00;1.03;;;0.53;;
13483;SDS011;6814;57.786;12.080;2023-06-10T08:18:27;0.40;;;0.40;;
13483;SDS011;6814;57.786;12.080;2023-06-10T08:20:55;0.60;;;0.57;;
13483;SDS011;6814;57.786;12.080;2023-06-10T08:23:22;1.93;;;0.53;;
13483;SDS011;6814;57.786;12.080;2023-06-10T08:25:48;0.50;;;0.50;;
13483;SDS011;6814;57.786;12.080;2023-06-10T08:28:16;2.47;;;0.80;;
13483;SDS011;6814;57.786;12.080;2023-06-10T08:30:44;0.50;;;0.50;;
13483;SDS011;6814;57.786;12.080;2023-06-10T08:33:10;1.53;;;0.50;;
13483;SDS011;6814;57.786;12.080;2023-06-10T08:35:36;0.53;;;0.53;;
13483;SDS011;6814;57.786;12.080;2023-06-10T08:38:03;0.60;;;0.60;;
13483;SDS011;6814;57.786;12.080;2023-06-10T08:40:29;0.67;;;0.63;;
13483;SDS011;6814;57.786;12.080;2023-06-10T08:43:00;1.60;;;0.90;;
13483;SDS011;6814;57.786;12.080;2023-06-10T08:45:31;1.20;;;0.60;;
13483;SDS011;6814;57.786;12.080;2023-06-10T08:47:59;7.40;;;1.33;;
13483;SDS011;6814;57.786;12.080;2023-06-10T08:50:26;6.00;;;0.67;;
13483;SDS011;6814;57.786;12.080;2023-06-10T08:52:56;3.40;;;0.90;;
13483;SDS011;6814;57.786;12.080;2023-06-10T08:55:25;0.90;;;0.70;;
13483;SDS011;6814;57.786;12.080;2023-06-10T08:57:53;1.87;;;0.80;;
13483;SDS011;6814;57.786;12.080;2023-06-10T09:00:21;1.00;;;0.70;;
13483;SDS011;6814;57.786;12.080;2023-06-10T09:02:48;3.30;;;0.70;;
13483;SDS011;6814;57.786;12.080;2023-06-10T09:05:16;0.57;;;0.57;;
13483;SDS011;6814;57.786;12.080;2023-06-10T09:07:42;1.33;;;0.70;;
13483;SDS011;6814;57.786;12.080;2023-06-10T09:10:10;1.90;;;0.70;;
13483;SDS011;6814;57.786;12.080;2023-06-10T09:12:37;2.30;;;0.90;;
13483;SDS011;6814;57.786;12.080;2023-06-10T09:15:04;0.70;;;0.70;;
13483;SDS011;6814;57.786;12.080;2023-06-10T09:17:31;1.90;;;0.70;;
13483;SDS011;6814;57.786;12.080;2023-06-10T09:22:26;1.07;;;0.97;;
13483;SDS011;6814;57.786;12.080;2023-06-10T09:25:01;0.97;;;0.60;;
13483;SDS011;6814;57.786;12.080;2023-06-10T09:27:29;2.10;;;0.60;;
13483;SDS011;6814;57.786;12.080;2023-06-10T09:29:56;1.80;;;0.70;;
13483;SDS011;6814;57.786;12.080;2023-06-10T09:32:22;0.77;;;0.77;;
13483;SDS011;6814;57.786;12.080;2023-06-10T09:34:50;0.50;;;0.50;;
13483;SDS011;6814;57.786;12.080;2023-06-10T09:37:19;2.07;;;0.67;;
13483;SDS011;6814;57.786;12.080;2023-06-10T09:39:52;1.30;;;1.20;;
13483;SDS011;6814;57.786;12.080;2023-06-10T09:42:26;0.77;;;0.73;;
13483;SDS011;6814;57.786;12.080;2023-06-10T09:44:53;1.10;;;0.87;;
13483;SDS011;6814;57.786;12.080;2023-06-10T09:47:19;0.60;;;0.60;;
13483;SDS011;6814;57.786;12.080;2023-06-10T09:49:46;0.90;;;0.90;;
13483;SDS011;6814;57.786;12.080;2023-06-10T09:52:13;1.37;;;0.80;;
13483;SDS011;6814;57.786;12.080;2023-06-10T09:54:39;0.77;;;0.77;;
13483;SDS011;6814;57.786;12.080;2023-06-10T09:57:08;0.60;;;0.60;;
13483;SDS011;6814;57.786;12.080;2023-06-10T09:59:35;0.83;;;0.80;;
13483;SDS011;6814;57.786;12.080;2023-06-10T10:02:03;0.83;;;0.70;;
13483;SDS011;6814;57.786;12.080;2023-06-10T10:04:30;1.77;;;0.73;;
13483;SDS011;6814;57.786;12.080;2023-06-10T10:06:57;1.53;;;0.77;;
13483;SDS011;6814;57.786;12.080;2023-06-10T10:09:24;0.63;;;0.63;;
13483;SDS011;6814;57.786;12.080;2023-06-10T10:11:51;1.20;;;0.80;;
13483;SDS011;6814;57.786;12.080;2023-06-10T10:14:19;0.90;;;0.90;;
13483;SDS011;6814;57.786;12.080;2023-06-10T10:16:46;1.27;;;0.93;;
13483;SDS011;6814;57.786;12.080;2023-06-10T10:19:15;0.90;;;0.90;;
13483;SDS011;6814;57.786;12.080;2023-06-10T10:21:43;1.90;;;0.83;;
13483;SDS011;6814;57.786;12.080;2023-06-10T10:24:12;0.90;;;0.70;;
13483;SDS011;6814;57.786;12.080;2023-06-10T10:26:41;0.70;;;0.70;;
13483;SDS011;6814;57.786;12.080;2023-06-10T10:29:10;0.70;;;0.70;;
13483;SDS011;6814;57.786;12.080;2023-06-10T10:31:38;0.90;;;0.90;;
13483;SDS011;6814;57.786;12.080;2023-06-10T10:34:06;0.90;;;0.90;;
13483;SDS011;6814;57.786;12.080;2023-06-10T10:36:33;0.77;;;0.77;;
13483;SDS011;6814;57.786;12.080;2023-06-10T10:38:59;0.70;;;0.70;;
13483;SDS011;6814;57.786;12.080;2023-06-10T10:41:28;0.80;;;0.80;;
13483;SDS011;6814;57.786;12.080;2023-06-10T10:43:56;1.37;;;0.63;;
13483;SDS011;6814;57.786;12.080;2023-06-10T10:46:23;0.70;;;0.70;;
13483;SDS011;6814;57.786;12.080;2023-06-10T10:48:53;2.50;;;0.90;;
13483;SDS011;6814;57.786;12.080;2023-06-10T10:51:19;0.93;;;0.93;;
13483;SDS011;6814;57.786;12.080;2023-06-10T10:56:27;1.03;;;1.03;;
13483;SDS011;6814;57.786;12.080;2023-06-10T10:59:01;0.80;;;0.80;;
13483;SDS011;6814;57.786;12.080;2023-06-10T11:01:32;1.60;;;0.90;;
13483;SDS011;6814;57.786;12.080;2023-06-10T11:04:07;0.97;;;0.80;;
13483;SDS011;6814;57.786;12.080;2023-06-10T11:06:34;3.17;;;0.77;;
13483;SDS011;6814;57.786;12.080;2023-06-10T11:09:01;0.93;;;0.80;;
13483;SDS011;6814;57.786;12.080;2023-06-10T11:11:49;2.70;;;0.80;;
13483;SDS011;6814;57.786;12.080;2023-06-10T11:14:15;1.13;;;0.80;;
13483;SDS011;6814;57.786;12.080;2023-06-10T11:16:52;2.33;;;0.80;;
13483;SDS011;6814;57.786;12.080;2023-06-10T11:19:35;0.90;;;0.90;;
13483;SDS011;6814;57.786;12.080;2023-06-10T11:22:02;0.93;;;0.93;;
13483;SDS011;6814;57.786;12.080;2023-06-10T11:24:30;0.93;;;0.90;;
13483;SDS011;6814;57.786;12.080;2023-06-10T11:29:38;0.80;;;0.80;;
13483;SDS011;6814;57.786;12.080;2023-06-10T11:32:04;1.17;;;1.07;;
13483;SDS011;6814;57.786;12.080;2023-06-10T11:34:31;1.10;;;1.00;;
13483;SDS011;6814;57.786;12.080;2023-06-10T11:36:59;0.93;;;0.93;;
13483;SDS011;6814;57.786;12.080;2023-06-10T11:39:26;2.00;;;1.07;;
13483;SDS011;6814;57.786;12.080;2023-06-10T11:41:52;1.23;;;1.13;;
13483;SDS011;6814;57.786;12.080;2023-06-10T11:44:20;1.10;;;1.10;;
13483;SDS011;6814;57.786;12.080;2023-06-10T11:46:47;1.30;;;1.00;;
13483;SDS011;6814;57.786;12.080;2023-06-10T11:49:14;1.00;;;1.00;;
13483;SDS011;6814;57.786;12.080;2023-06-10T11:51:41;1.57;;;0.90;;
13483;SDS011;6814;57.786;12.080;2023-06-10T11:54:15;2.20;;;1.03;;
13483;SDS011;6814;57.786;12.080;2023-06-10T11:56:43;1.00;;;0.90;;
13483;SDS011;6814;57.786;12.080;2023-06-10T11:59:10;1.03;;;0.93;;
13483;SDS011;6814;57.786;12.080;2023-06-10T12:01:37;1.00;;;0.90;;
13483;SDS011;6814;57.786;12.080;2023-06-10T12:04:05;1.50;;;0.90;;
13483;SDS011;6814;57.786;12.080;2023-06-10T12:06:39;1.27;;;1.20;;
13483;SDS011;6814;57.786;12.080;2023-06-10T12:09:06;1.00;;;1.00;;
13483;SDS011;6814;57.786;12.080;2023-06-10T12:11:34;0.90;;;0.90;;
13483;SDS011;6814;57.786;12.080;2023-06-10T12:14:01;3.10;;;1.23;;
13483;SDS011;6814;57.786;12.080;2023-06-10T12:16:29;1.40;;;0.93;;
13483;SDS011;6814;57.786;12.080;2023-06-10T12:19:00;1.03;;;1.00;;
13483;SDS011;6814;57.786;12.080;2023-06-10T12:21:27;1.47;;;1.13;;
13483;SDS011;6814;57.786;12.080;2023-06-10T12:24:03;1.20;;;1.10;;
13483;SDS011;6814;57.786;12.080;2023-06-10T12:26:35;1.40;;;1.30;;
13483;SDS011;6814;57.786;12.080;2023-06-10T12:29:02;1.43;;;1.13;;
13483;SDS011;6814;57.786;12.080;2023-06-10T12:31:51;1.23;;;1.00;;
13483;SDS011;6814;57.786;12.080;2023-06-10T12:34:18;1.20;;;1.10;;
13483;SDS011;6814;57.786;12.080;2023-06-10T12:36:47;1.00;;;1.00;;
13483;SDS011;6814;57.786;12.080;2023-06-10T12:39:13;1.33;;;1.00;;
13483;SDS011;6814;57.786;12.080;2023-06-10T12:41:41;1.70;;;1.00;;
13483;SDS011;6814;57.786;12.080;2023-06-10T12:44:13;2.50;;;1.20;;
13483;SDS011;6814;57.786;12.080;2023-06-10T12:46:40;1.37;;;1.03;;
13483;SDS011;6814;57.786;12.080;2023-06-10T12:49:07;1.83;;;0.93;;
13483;SDS011;6814;57.786;12.080;2023-06-10T12:51:33;1.13;;;1.10;;
13483;SDS011;6814;57.786;12.080;2023-06-10T12:54:00;1.60;;;1.10;;
13483;SDS011;6814;57.786;12.080;2023-06-10T12:56:27;1.33;;;1.00;;
13483;SDS011;6814;57.786;12.080;2023-06-10T12:58:55;1.07;;;1.07;;
13483;SDS011;6814;57.786;12.080;2023-06-10T13:01:21;1.60;;;1.50;;
13483;SDS011;6814;57.786;12.080;2023-06-10T13:03:48;1.00;;;1.00;;
13483;SDS011;6814;57.786;12.080;2023-06-10T13:06:15;0.90;;;0.90;;
13483;SDS011;6814;57.786;12.080;2023-06-10T13:08:41;1.17;;;1.17;;
13483;SDS011;6814;57.786;12.080;2023-06-10T13:11:08;1.10;;;1.00;;
13483;SDS011;6814;57.786;12.080;2023-06-10T13:13:36;1.80;;;1.20;;
13483;SDS011;6814;57.786;12.080;2023-06-10T13:16:04;1.30;;;1.10;;
13483;SDS011;6814;57.786;12.080;2023-06-10T13:18:34;3.10;;;1.00;;
13483;SDS011;6814;57.786;12.080;2023-06-10T13:21:03;1.63;;;1.10;;
13483;SDS011;6814;57.786;12.080;2023-06-10T13:23:30;1.20;;;1.10;;
13483;SDS011;6814;57.786;12.080;2023-06-10T13:25:57;1.00;;;1.00;;
13483;SDS011;6814;57.786;12.080;2023-06-10T13:28:23;1.20;;;1.10;;
13483;SDS011;6814;57.786;12.080;2023-06-10T13:30:50;1.20;;;1.10;;
13483;SDS011;6814;57.786;12.080;2023-06-10T13:33:18;1.20;;;1.20;;
13483;SDS011;6814;57.786;12.080;2023-06-10T13:35:44;1.40;;;1.20;;
13483;SDS011;6814;57.786;12.080;2023-06-10T13:38:11;1.10;;;1.10;;
13483;SDS011;6814;57.786;12.080;2023-06-10T13:40:37;1.83;;;1.20;;
13483;SDS011;6814;57.786;12.080;2023-06-10T13:43:04;1.47;;;0.97;;
13483;SDS011;6814;57.786;12.080;2023-06-10T13:45:30;1.40;;;1.10;;
13483;SDS011;6814;57.786;12.080;2023-06-10T13:47:57;1.70;;;1.20;;
13483;SDS011;6814;57.786;12.080;2023-06-10T13:50:26;1.90;;;1.00;;
13483;SDS011;6814;57.786;12.080;2023-06-10T13:52:52;1.10;;;1.03;;
13483;SDS011;6814;57.786;12.080;2023-06-10T13:55:19;1.33;;;1.23;;
13483;SDS011;6814;57.786;12.080;2023-06-10T13:57:46;3.43;;;0.93;;
13483;SDS011;6814;57.786;12.080;2023-06-10T14:00:12;1.10;;;1.00;;
13483;SDS011;6814;57.786;12.080;2023-06-10T14:02:39;2.53;;;1.07;;
13483;SDS011;6814;57.786;12.080;2023-06-10T14:05:06;1.40;;;1.30;;
13483;SDS011;6814;57.786;12.080;2023-06-10T14:07:34;1.00;;;1.00;;
13483;SDS011;6814;57.786;12.080;2023-06-10T14:10:02;1.30;;;1.03;;
13483;SDS011;6814;57.786;12.080;2023-06-10T14:12:29;1.27;;;1.20;;
13483;SDS011;6814;57.786;12.080;2023-06-10T14:14:56;9.63;;;1.80;;
13483;SDS011;6814;57.786;12.080;2023-06-10T14:17:22;1.17;;;1.08;;
13483;SDS011;6814;57.786;12.080;2023-06-10T14:19:55;1.67;;;1.10;;
13483;SDS011;6814;57.786;12.080;2023-06-10T14:22:25;1.45;;;1.20;;
13483;SDS011;6814;57.786;12.080;2023-06-10T14:24:53;1.10;;;1.00;;
13483;SDS011;6814;57.786;12.080;2023-06-10T14:27:20;0.80;;;0.80;;
13483;SDS011;6814;57.786;12.080;2023-06-10T14:29:47;33.88;;;4.45;;
13483;SDS011;6814;57.786;12.080;2023-06-10T14:32:13;1.67;;;1.10;;
13483;SDS011;6814;57.786;12.080;2023-06-10T14:34:40;0.90;;;0.90;;
13483;SDS011;6814;57.786;12.080;2023-06-10T14:37:09;1.35;;;1.05;;
13483;SDS011;6814;57.786;12.080;2023-06-10T14:39:35;1.30;;;1.15;;
13483;SDS011;6814;57.786;12.080;2023-06-10T14:42:04;7.38;;;1.30;;
13483;SDS011;6814;57.786;12.080;2023-06-10T14:44:31;1.02;;;1.02;;
13483;SDS011;6814;57.786;12.080;2023-06-10T14:46:57;1.80;;;1.20;;
13483;SDS011;6814;57.786;12.080;2023-06-10T14:49:24;9.27;;;1.63;;
13483;SDS011;6814;57.786;12.080;2023-06-10T14:51:50;0.82;;;0.82;;
13483;SDS011;6814;57.786;12.080;2023-06-10T14:54:18;1.20;;;1.20;;
13483;SDS011;6814;57.786;12.080;2023-06-10T14:56:44;1.13;;;1.00;;